sensor_id;sensor_type;location;lat;lon;timestamp;P1;durP1;ratioP1;P2;durP2;ratioP2
21272;SDS011;36726;52.328;10.552;2023-02-27T00:01:33;3.78;;;2.00;;
21272;SDS011;36726;52.328;10.552;2023-02-27T00:04:00;7.07;;;2.00;;
21272;SDS011;36726;52.328;10.552;2023-02-27T00:06:27;2.60;;;1.80;;
21272;SDS011;36726;52.328;10.552;2023-02-27T00:08:53;3.92;;;1.90;;
21272;SDS011;36726;52.328;10.552;2023-02-27T00:11:20;6.07;;;2.15;;
21272;SDS011;36726;52.328;10.552;2023-02-27T00:13:47;3.40;;;2.00;;
21272;SDS011;36726;52.328;10.552;2023-02-27T00:16:14;4.32;;;2.60;;
21272;SDS011;36726;52.328;10.552;2023-02-27T00:18:41;8.55;;;2.88;;
21272;SDS011;36726;52.328;10.552;2023-02-27T00:21:07;6.57;;;3.10;;
21272;SDS011;36726;52.328;10.552;2023-02-27T00:23:34;4.72;;;2.40;;
21272;SDS011;36726;52.328;10.552;2023-02-27T00:26:03;6.25;;;2.67;;
21272;SDS011;36726;52.328;10.552;2023-02-27T00:28:29;5.28;;;2.55;;
21272;SDS011;36726;52.328;10.552;2023-02-27T00:30:56;4.40;;;2.35;;
21272;SDS011;36726;52.328;10.552;2023-02-27T00:33:23;4.80;;;3.03;;
21272;SDS011;36726;52.328;10.552;2023-02-27T00:35:59;5.85;;;2.70;;
21272;SDS011;36726;52.328;10.552;2023-02-27T00:38:27;5.35;;;2.67;;
21272;SDS011;36726;52.328;10.552;2023-02-27T00:40:56;5.03;;;2.78;;
21272;SDS011;36726;52.328;10.552;2023-02-27T00:43:22;4.78;;;2.08;;
21272;SDS011;36726;52.328;10.552;2023-02-27T00:45:49;7.40;;;2.72;;
21272;SDS011;36726;52.328;10.552;2023-02-27T00:48:16;5.63;;;2.88;;
21272;SDS011;36726;52.328;10.552;2023-02-27T00:50:42;7.40;;;2.63;;
21272;SDS011;36726;52.328;10.552;2023-02-27T00:53:09;8.00;;;3.00;;
21272;SDS011;36726;52.328;10.552;2023-02-27T00:55:36;5.20;;;2.78;;
21272;SDS011;36726;52.328;10.552;2023-02-27T00:58:02;5.90;;;3.17;;
21272;SDS011;36726;52.328;10.552;2023-02-27T01:00:29;5.10;;;2.88;;
21272;SDS011;36726;52.328;10.552;2023-02-27T01:02:56;5.47;;;2.60;;
21272;SDS011;36726;52.328;10.552;2023-02-27T01:05:22;6.95;;;2.65;;
21272;SDS011;36726;52.328;10.552;2023-02-27T01:07:50;5.50;;;2.28;;
21272;SDS011;36726;52.328;10.552;2023-02-27T01:10:16;6.93;;;2.53;;
21272;SDS011;36726;52.328;10.552;2023-02-27T01:12:43;4.10;;;2.50;;
21272;SDS011;36726;52.328;10.552;2023-02-27T01:15:10;4.25;;;2.13;;
21272;SDS011;36726;52.328;10.552;2023-02-27T01:17:37;3.67;;;2.22;;
21272;SDS011;36726;52.328;10.552;2023-02-27T01:20:05;4.65;;;2.30;;
21272;SDS011;36726;52.328;10.552;2023-02-27T01:22:33;5.63;;;2.60;;
21272;SDS011;36726;52.328;10.552;2023-02-27T01:25:00;3.83;;;2.38;;
21272;SDS011;36726;52.328;10.552;2023-02-27T01:27:26;5.88;;;2.50;;
21272;SDS011;36726;52.328;10.552;2023-02-27T01:29:53;5.35;;;2.42;;
21272;SDS011;36726;52.328;10.552;2023-02-27T01:32:21;4.07;;;2.42;;
21272;SDS011;36726;52.328;10.552;2023-02-27T01:34:48;3.95;;;2.10;;
21272;SDS011;36726;52.328;10.552;2023-02-27T01:37:15;3.72;;;2.40;;
21272;SDS011;36726;52.328;10.552;2023-02-27T01:39:42;5.25;;;2.30;;
21272;SDS011;36726;52.328;10.552;2023-02-27T01:42:16;7.70;;;2.50;;
21272;SDS011;36726;52.328;10.552;2023-02-27T01:47:44;3.50;;;2.20;;
21272;SDS011;36726;52.328;10.552;2023-02-27T01:50:13;4.00;;;2.63;;
21272;SDS011;36726;52.328;10.552;2023-02-27T01:52:42;5.97;;;2.70;;
21272;SDS011;36726;52.328;10.552;2023-02-27T01:55:11;3.92;;;2.58;;
21272;SDS011;36726;52.328;10.552;2023-02-27T01:57:39;4.88;;;2.63;;
21272;SDS011;36726;52.328;10.552;2023-02-27T02:00:07;6.03;;;2.72;;
21272;SDS011;36726;52.328;10.552;2023-02-27T02:02:38;6.03;;;2.88;;
21272;SDS011;36726;52.328;10.552;2023-02-27T02:05:07;4.28;;;2.28;;
21272;SDS011;36726;52.328;10.552;2023-02-27T02:07:35;5.30;;;2.63;;
21272;SDS011;36726;52.328;10.552;2023-02-27T02:10:06;6.80;;;3.08;;
21272;SDS011;36726;52.328;10.552;2023-02-27T02:12:36;5.53;;;2.88;;
21272;SDS011;36726;52.328;10.552;2023-02-27T02:15:04;6.90;;;2.97;;
21272;SDS011;36726;52.328;10.552;2023-02-27T02:26:22;4.75;;;2.97;;
21272;SDS011;36726;52.328;10.552;2023-02-27T02:29:08;5.88;;;2.70;;
21272;SDS011;36726;52.328;10.552;2023-02-27T02:40:18;4.40;;;2.70;;
21272;SDS011;36726;52.328;10.552;2023-02-27T02:43:01;4.00;;;2.40;;
21272;SDS011;36726;52.328;10.552;2023-02-27T02:48:37;5.60;;;2.92;;
21272;SDS011;36726;52.328;10.552;2023-02-27T02:54:08;4.88;;;3.08;;
21272;SDS011;36726;52.328;10.552;2023-02-27T02:56:48;6.50;;;3.17;;
21272;SDS011;36726;52.328;10.552;2023-02-27T02:59:28;6.18;;;2.75;;
21272;SDS011;36726;52.328;10.552;2023-02-27T03:02:02;8.52;;;3.83;;
21272;SDS011;36726;52.328;10.552;2023-02-27T03:08:03;6.90;;;3.35;;
21272;SDS011;36726;52.328;10.552;2023-02-27T03:10:27;6.43;;;3.25;;
21272;SDS011;36726;52.328;10.552;2023-02-27T03:13:05;6.15;;;3.47;;
21272;SDS011;36726;52.328;10.552;2023-02-27T03:15:39;7.03;;;3.05;;
21272;SDS011;36726;52.328;10.552;2023-02-27T03:18:13;5.53;;;2.85;;
21272;SDS011;36726;52.328;10.552;2023-02-27T03:20:47;7.45;;;3.10;;
21272;SDS011;36726;52.328;10.552;2023-02-27T03:23:27;6.53;;;2.97;;
21272;SDS011;36726;52.328;10.552;2023-02-27T03:25:59;5.72;;;2.75;;
21272;SDS011;36726;52.328;10.552;2023-02-27T03:28:28;4.80;;;2.50;;
21272;SDS011;36726;52.328;10.552;2023-02-27T03:33:46;6.22;;;2.80;;
21272;SDS011;36726;52.328;10.552;2023-02-27T03:38:48;6.30;;;2.50;;
21272;SDS011;36726;52.328;10.552;2023-02-27T03:41:34;4.68;;;2.45;;
21272;SDS011;36726;52.328;10.552;2023-02-27T03:44:27;5.78;;;2.97;;
21272;SDS011;36726;52.328;10.552;2023-02-27T03:47:01;2.72;;;2.38;;
21272;SDS011;36726;52.328;10.552;2023-02-27T03:49:28;5.18;;;2.38;;
21272;SDS011;36726;52.328;10.552;2023-02-27T03:51:55;5.75;;;2.60;;
21272;SDS011;36726;52.328;10.552;2023-02-27T03:54:24;3.20;;;2.60;;
21272;SDS011;36726;52.328;10.552;2023-02-27T03:56:59;6.05;;;2.90;;
21272;SDS011;36726;52.328;10.552;2023-02-27T03:59:30;3.40;;;2.17;;
21272;SDS011;36726;52.328;10.552;2023-02-27T04:01:59;4.70;;;2.63;;
21272;SDS011;36726;52.328;10.552;2023-02-27T04:04:29;4.68;;;2.75;;
21272;SDS011;36726;52.328;10.552;2023-02-27T04:07:20;6.70;;;2.70;;
21272;SDS011;36726;52.328;10.552;2023-02-27T04:09:55;5.35;;;2.80;;
21272;SDS011;36726;52.328;10.552;2023-02-27T04:12:41;5.55;;;2.42;;
21272;SDS011;36726;52.328;10.552;2023-02-27T04:20:59;3.53;;;2.33;;
21272;SDS011;36726;52.328;10.552;2023-02-27T04:23:56;7.28;;;2.75;;
21272;SDS011;36726;52.328;10.552;2023-02-27T04:26:27;6.10;;;2.40;;
21272;SDS011;36726;52.328;10.552;2023-02-27T04:29:17;7.00;;;2.75;;
21272;SDS011;36726;52.328;10.552;2023-02-27T04:37:13;4.00;;;2.17;;
21272;SDS011;36726;52.328;10.552;2023-02-27T04:39:50;5.47;;;2.42;;
21272;SDS011;36726;52.328;10.552;2023-02-27T04:42:40;7.82;;;2.92;;
21272;SDS011;36726;52.328;10.552;2023-02-27T04:45:09;6.78;;;2.78;;
21272;SDS011;36726;52.328;10.552;2023-02-27T04:47:42;6.30;;;3.05;;
21272;SDS011;36726;52.328;10.552;2023-02-27T04:50:17;7.35;;;2.63;;
21272;SDS011;36726;52.328;10.552;2023-02-27T04:52:54;5.88;;;2.67;;
21272;SDS011;36726;52.328;10.552;2023-02-27T04:55:26;5.72;;;2.97;;
21272;SDS011;36726;52.328;10.552;2023-02-27T05:00:38;5.57;;;2.63;;
21272;SDS011;36726;52.328;10.552;2023-02-27T05:03:10;4.47;;;2.58;;
21272;SDS011;36726;52.328;10.552;2023-02-27T05:05:41;5.07;;;2.80;;
21272;SDS011;36726;52.328;10.552;2023-02-27T05:11:12;4.93;;;2.65;;
21272;SDS011;36726;52.328;10.552;2023-02-27T05:13:45;5.28;;;3.10;;
21272;SDS011;36726;52.328;10.552;2023-02-27T05:16:18;6.03;;;2.90;;
21272;SDS011;36726;52.328;10.552;2023-02-27T05:18:52;2.80;;;2.00;;
21272;SDS011;36726;52.328;10.552;2023-02-27T05:29:18;4.32;;;2.42;;
21272;SDS011;36726;52.328;10.552;2023-02-27T05:32:02;4.40;;;2.80;;
21272;SDS011;36726;52.328;10.552;2023-02-27T05:34:34;5.55;;;2.70;;
21272;SDS011;36726;52.328;10.552;2023-02-27T05:37:11;5.60;;;2.70;;
21272;SDS011;36726;52.328;10.552;2023-02-27T05:39:42;7.45;;;2.90;;
21272;SDS011;36726;52.328;10.552;2023-02-27T05:42:14;7.97;;;2.65;;
21272;SDS011;36726;52.328;10.552;2023-02-27T05:44:46;7.43;;;2.90;;
21272;SDS011;36726;52.328;10.552;2023-02-27T05:47:17;6.45;;;2.67;;
21272;SDS011;36726;52.328;10.552;2023-02-27T05:49:54;5.20;;;2.58;;
21272;SDS011;36726;52.328;10.552;2023-02-27T05:52:26;8.80;;;2.60;;
21272;SDS011;36726;52.328;10.552;2023-02-27T05:54:58;4.20;;;2.67;;
21272;SDS011;36726;52.328;10.552;2023-02-27T05:57:47;8.52;;;3.08;;
21272;SDS011;36726;52.328;10.552;2023-02-27T06:02:47;4.25;;;2.63;;
21272;SDS011;36726;52.328;10.552;2023-02-27T06:05:16;8.18;;;3.05;;
21272;SDS011;36726;52.328;10.552;2023-02-27T06:07:43;6.78;;;2.78;;
21272;SDS011;36726;52.328;10.552;2023-02-27T06:10:14;7.45;;;2.90;;
21272;SDS011;36726;52.328;10.552;2023-02-27T06:12:44;8.75;;;3.30;;
21272;SDS011;36726;52.328;10.552;2023-02-27T06:15:11;7.22;;;3.53;;
21272;SDS011;36726;52.328;10.552;2023-02-27T06:17:38;7.78;;;3.72;;
21272;SDS011;36726;52.328;10.552;2023-02-27T06:20:06;8.80;;;3.50;;
21272;SDS011;36726;52.328;10.552;2023-02-27T06:22:33;7.32;;;3.83;;
21272;SDS011;36726;52.328;10.552;2023-02-27T06:25:01;11.05;;;4.03;;
21272;SDS011;36726;52.328;10.552;2023-02-27T06:27:28;10.77;;;4.47;;
21272;SDS011;36726;52.328;10.552;2023-02-27T06:29:54;7.10;;;3.47;;
21272;SDS011;36726;52.328;10.552;2023-02-27T06:32:22;11.93;;;3.75;;
21272;SDS011;36726;52.328;10.552;2023-02-27T06:34:51;6.35;;;3.10;;
21272;SDS011;36726;52.328;10.552;2023-02-27T06:37:18;8.55;;;3.88;;
21272;SDS011;36726;52.328;10.552;2023-02-27T06:39:44;9.95;;;4.30;;
21272;SDS011;36726;52.328;10.552;2023-02-27T06:42:11;8.77;;;4.15;;
21272;SDS011;36726;52.328;10.552;2023-02-27T06:44:37;11.63;;;4.78;;
21272;SDS011;36726;52.328;10.552;2023-02-27T06:47:04;13.20;;;5.63;;
21272;SDS011;36726;52.328;10.552;2023-02-27T06:49:30;14.80;;;6.22;;
21272;SDS011;36726;52.328;10.552;2023-02-27T06:51:57;7.03;;;3.63;;
21272;SDS011;36726;52.328;10.552;2023-02-27T06:54:24;10.75;;;4.40;;
21272;SDS011;36726;52.328;10.552;2023-02-27T06:56:50;8.10;;;4.40;;
21272;SDS011;36726;52.328;10.552;2023-02-27T06:59:17;14.18;;;5.43;;
21272;SDS011;36726;52.328;10.552;2023-02-27T07:01:43;12.98;;;5.72;;
21272;SDS011;36726;52.328;10.552;2023-02-27T07:04:13;9.38;;;4.50;;
21272;SDS011;36726;52.328;10.552;2023-02-27T07:06:40;9.45;;;4.53;;
21272;SDS011;36726;52.328;10.552;2023-02-27T07:09:27;9.15;;;3.70;;
21272;SDS011;36726;52.328;10.552;2023-02-27T07:11:53;7.72;;;3.60;;
21272;SDS011;36726;52.328;10.552;2023-02-27T07:14:20;6.65;;;3.83;;
21272;SDS011;36726;52.328;10.552;2023-02-27T07:16:47;8.77;;;3.92;;
21272;SDS011;36726;52.328;10.552;2023-02-27T07:19:16;9.15;;;4.07;;
21272;SDS011;36726;52.328;10.552;2023-02-27T07:21:43;8.02;;;4.47;;
21272;SDS011;36726;52.328;10.552;2023-02-27T07:24:10;10.52;;;4.15;;
21272;SDS011;36726;52.328;10.552;2023-02-27T07:26:37;7.65;;;4.15;;
21272;SDS011;36726;52.328;10.552;2023-02-27T07:29:04;7.78;;;3.83;;
21272;SDS011;36726;52.328;10.552;2023-02-27T07:31:31;7.40;;;4.10;;
21272;SDS011;36726;52.328;10.552;2023-02-27T07:33:58;8.02;;;4.20;;
21272;SDS011;36726;52.328;10.552;2023-02-27T07:36:25;9.02;;;4.10;;
21272;SDS011;36726;52.328;10.552;2023-02-27T07:38:52;8.77;;;4.30;;
21272;SDS011;36726;52.328;10.552;2023-02-27T07:41:18;12.13;;;4.13;;
21272;SDS011;36726;52.328;10.552;2023-02-27T07:43:58;5.68;;;3.75;;
21272;SDS011;36726;52.328;10.552;2023-02-27T07:46:24;8.65;;;3.50;;
21272;SDS011;36726;52.328;10.552;2023-02-27T07:48:53;5.80;;;3.47;;
21272;SDS011;36726;52.328;10.552;2023-02-27T07:51:20;7.70;;;3.78;;
21272;SDS011;36726;52.328;10.552;2023-02-27T07:53:47;9.02;;;3.40;;
21272;SDS011;36726;52.328;10.552;2023-02-27T07:56:13;6.88;;;3.85;;
21272;SDS011;36726;52.328;10.552;2023-02-27T07:58:40;8.95;;;3.85;;
21272;SDS011;36726;52.328;10.552;2023-02-27T08:01:06;8.40;;;3.60;;
21272;SDS011;36726;52.328;10.552;2023-02-27T08:03:33;8.30;;;4.05;;
21272;SDS011;36726;52.328;10.552;2023-02-27T08:05:59;10.13;;;3.78;;
21272;SDS011;36726;52.328;10.552;2023-02-27T08:08:27;8.20;;;3.58;;
21272;SDS011;36726;52.328;10.552;2023-02-27T08:10:54;7.47;;;3.78;;
21272;SDS011;36726;52.328;10.552;2023-02-27T08:13:21;7.15;;;3.83;;
21272;SDS011;36726;52.328;10.552;2023-02-27T08:16:08;6.97;;;4.45;;
21272;SDS011;36726;52.328;10.552;2023-02-27T08:18:34;8.02;;;4.45;;
21272;SDS011;36726;52.328;10.552;2023-02-27T08:21:01;9.85;;;3.72;;
21272;SDS011;36726;52.328;10.552;2023-02-27T08:23:30;7.60;;;4.25;;
21272;SDS011;36726;52.328;10.552;2023-02-27T08:26:00;8.82;;;4.45;;
21272;SDS011;36726;52.328;10.552;2023-02-27T08:28:27;8.68;;;3.50;;
21272;SDS011;36726;52.328;10.552;2023-02-27T08:30:54;7.15;;;3.80;;
21272;SDS011;36726;52.328;10.552;2023-02-27T08:33:21;7.95;;;3.85;;
21272;SDS011;36726;52.328;10.552;2023-02-27T08:35:48;5.05;;;3.25;;
21272;SDS011;36726;52.328;10.552;2023-02-27T08:38:15;7.47;;;3.55;;
21272;SDS011;36726;52.328;10.552;2023-02-27T08:40:41;6.22;;;3.60;;
21272;SDS011;36726;52.328;10.552;2023-02-27T08:43:08;9.27;;;3.38;;
21272;SDS011;36726;52.328;10.552;2023-02-27T08:45:34;5.28;;;3.45;;
21272;SDS011;36726;52.328;10.552;2023-02-27T08:48:01;9.23;;;3.20;;
21272;SDS011;36726;52.328;10.552;2023-02-27T08:50:28;5.25;;;3.33;;
21272;SDS011;36726;52.328;10.552;2023-02-27T08:52:54;7.47;;;3.72;;
21272;SDS011;36726;52.328;10.552;2023-02-27T08:55:21;6.90;;;3.10;;
21272;SDS011;36726;52.328;10.552;2023-02-27T08:57:48;9.65;;;3.47;;
21272;SDS011;36726;52.328;10.552;2023-02-27T09:00:14;6.55;;;3.65;;
21272;SDS011;36726;52.328;10.552;2023-02-27T09:02:41;8.85;;;3.78;;
21272;SDS011;36726;52.328;10.552;2023-02-27T09:05:08;7.55;;;3.67;;
21272;SDS011;36726;52.328;10.552;2023-02-27T09:07:34;6.75;;;3.78;;
21272;SDS011;36726;52.328;10.552;2023-02-27T09:10:01;5.82;;;3.40;;
21272;SDS011;36726;52.328;10.552;2023-02-27T09:12:28;6.75;;;3.40;;
21272;SDS011;36726;52.328;10.552;2023-02-27T09:14:54;8.98;;;3.78;;
21272;SDS011;36726;52.328;10.552;2023-02-27T09:17:21;10.98;;;3.80;;
21272;SDS011;36726;52.328;10.552;2023-02-27T09:19:47;6.22;;;3.40;;
21272;SDS011;36726;52.328;10.552;2023-02-27T09:22:17;11.05;;;3.78;;
21272;SDS011;36726;52.328;10.552;2023-02-27T09:24:44;7.00;;;3.40;;
21272;SDS011;36726;52.328;10.552;2023-02-27T09:27:10;6.82;;;3.15;;
21272;SDS011;36726;52.328;10.552;2023-02-27T09:29:37;7.05;;;3.00;;
21272;SDS011;36726;52.328;10.552;2023-02-27T09:32:03;6.90;;;3.00;;
21272;SDS011;36726;52.328;10.552;2023-02-27T09:34:30;10.60;;;3.47;;
21272;SDS011;36726;52.328;10.552;2023-02-27T09:36:57;5.68;;;3.17;;
21272;SDS011;36726;52.328;10.552;2023-02-27T09:39:25;8.68;;;3.28;;
21272;SDS011;36726;52.328;10.552;2023-02-27T09:41:54;8.80;;;3.38;;
21272;SDS011;36726;52.328;10.552;2023-02-27T09:44:36;4.22;;;2.90;;
21272;SDS011;36726;52.328;10.552;2023-02-27T09:47:14;6.97;;;3.47;;
21272;SDS011;36726;52.328;10.552;2023-02-27T09:49:54;6.30;;;3.50;;
21272;SDS011;36726;52.328;10.552;2023-02-27T09:52:24;7.05;;;3.90;;
21272;SDS011;36726;52.328;10.552;2023-02-27T09:54:52;9.60;;;4.05;;
21272;SDS011;36726;52.328;10.552;2023-02-27T09:57:26;5.38;;;3.13;;
21272;SDS011;36726;52.328;10.552;2023-02-27T10:08:50;2.90;;;2.10;;
21272;SDS011;36726;52.328;10.552;2023-02-27T10:11:47;4.68;;;1.95;;
21272;SDS011;36726;52.328;10.552;2023-02-27T10:14:24;3.17;;;1.88;;
21272;SDS011;36726;52.328;10.552;2023-02-27T10:16:54;6.63;;;2.70;;
21272;SDS011;36726;52.328;10.552;2023-02-27T10:19:25;4.60;;;2.00;;
21272;SDS011;36726;52.328;10.552;2023-02-27T10:21:57;6.13;;;2.60;;
21272;SDS011;36726;52.328;10.552;2023-02-27T10:24:27;6.32;;;2.80;;
21272;SDS011;36726;52.328;10.552;2023-02-27T10:27:00;3.95;;;2.22;;
21272;SDS011;36726;52.328;10.552;2023-02-27T10:29:37;1.60;;;1.10;;
21272;SDS011;36726;52.328;10.552;2023-02-27T10:32:12;3.47;;;1.80;;
21272;SDS011;36726;52.328;10.552;2023-02-27T10:34:44;2.38;;;1.30;;
21272;SDS011;36726;52.328;10.552;2023-02-27T10:37:17;3.35;;;1.50;;
21272;SDS011;36726;52.328;10.552;2023-02-27T10:39:48;3.28;;;1.67;;
21272;SDS011;36726;52.328;10.552;2023-02-27T10:42:19;3.03;;;1.25;;
21272;SDS011;36726;52.328;10.552;2023-02-27T10:44:49;3.05;;;1.73;;
21272;SDS011;36726;52.328;10.552;2023-02-27T10:47:20;2.53;;;1.13;;
21272;SDS011;36726;52.328;10.552;2023-02-27T10:49:50;3.38;;;1.55;;
21272;SDS011;36726;52.328;10.552;2023-02-27T10:52:18;6.05;;;1.65;;
21272;SDS011;36726;52.328;10.552;2023-02-27T10:54:45;4.35;;;1.67;;
21272;SDS011;36726;52.328;10.552;2023-02-27T10:59:58;3.30;;;2.10;;
21272;SDS011;36726;52.328;10.552;2023-02-27T11:02:37;2.20;;;1.50;;
21272;SDS011;36726;52.328;10.552;2023-02-27T11:05:06;4.38;;;1.60;;
21272;SDS011;36726;52.328;10.552;2023-02-27T11:07:43;2.72;;;1.70;;
21272;SDS011;36726;52.328;10.552;2023-02-27T11:12:38;3.63;;;1.80;;
21272;SDS011;36726;52.328;10.552;2023-02-27T11:15:25;5.43;;;2.08;;
21272;SDS011;36726;52.328;10.552;2023-02-27T11:17:53;4.93;;;1.80;;
21272;SDS011;36726;52.328;10.552;2023-02-27T11:20:34;3.85;;;2.03;;
21272;SDS011;36726;52.328;10.552;2023-02-27T11:23:09;4.30;;;2.15;;
21272;SDS011;36726;52.328;10.552;2023-02-27T11:25:40;6.35;;;2.15;;
21272;SDS011;36726;52.328;10.552;2023-02-27T11:31:00;3.30;;;2.05;;
21272;SDS011;36726;52.328;10.552;2023-02-27T11:33:34;7.97;;;2.00;;
21272;SDS011;36726;52.328;10.552;2023-02-27T11:36:04;5.43;;;1.85;;
21272;SDS011;36726;52.328;10.552;2023-02-27T11:38:31;5.78;;;1.90;;
21272;SDS011;36726;52.328;10.552;2023-02-27T11:41:00;3.80;;;1.75;;
21272;SDS011;36726;52.328;10.552;2023-02-27T11:43:37;2.97;;;1.98;;
21272;SDS011;36726;52.328;10.552;2023-02-27T11:46:12;4.00;;;1.92;;
21272;SDS011;36726;52.328;10.552;2023-02-27T11:49:12;4.47;;;1.83;;
21272;SDS011;36726;52.328;10.552;2023-02-27T11:54:42;5.10;;;2.40;;
21272;SDS011;36726;52.328;10.552;2023-02-27T11:57:23;7.30;;;2.03;;
21272;SDS011;36726;52.328;10.552;2023-02-27T12:05:43;3.55;;;2.00;;
21272;SDS011;36726;52.328;10.552;2023-02-27T12:08:18;3.13;;;1.52;;
21272;SDS011;36726;52.328;10.552;2023-02-27T12:11:05;4.25;;;1.70;;
21272;SDS011;36726;52.328;10.552;2023-02-27T12:13:41;2.30;;;1.33;;
21272;SDS011;36726;52.328;10.552;2023-02-27T12:16:32;2.70;;;1.10;;
21272;SDS011;36726;52.328;10.552;2023-02-27T12:21:44;2.20;;;1.40;;
21272;SDS011;36726;52.328;10.552;2023-02-27T12:27:25;2.97;;;1.30;;
21272;SDS011;36726;52.328;10.552;2023-02-27T12:30:06;3.38;;;1.42;;
21272;SDS011;36726;52.328;10.552;2023-02-27T12:32:53;2.92;;;1.10;;
21272;SDS011;36726;52.328;10.552;2023-02-27T12:35:28;2.30;;;1.27;;
21272;SDS011;36726;52.328;10.552;2023-02-27T12:37:58;3.15;;;1.38;;
21272;SDS011;36726;52.328;10.552;2023-02-27T12:40:29;2.42;;;1.00;;
21272;SDS011;36726;52.328;10.552;2023-02-27T12:48:39;2.67;;;1.30;;
21272;SDS011;36726;52.328;10.552;2023-02-27T12:51:28;4.25;;;1.10;;
21272;SDS011;36726;52.328;10.552;2023-02-27T12:54:06;1.77;;;1.00;;
21272;SDS011;36726;52.328;10.552;2023-02-27T13:04:45;3.53;;;2.08;;
21272;SDS011;36726;52.328;10.552;2023-02-27T13:07:26;2.25;;;1.00;;
21272;SDS011;36726;52.328;10.552;2023-02-27T13:10:23;2.63;;;0.90;;
21272;SDS011;36726;52.328;10.552;2023-02-27T13:13:02;1.30;;;0.93;;
21272;SDS011;36726;52.328;10.552;2023-02-27T13:15:38;1.90;;;0.90;;
21272;SDS011;36726;52.328;10.552;2023-02-27T13:21:07;1.45;;;1.05;;
21272;SDS011;36726;52.328;10.552;2023-02-27T13:23:48;1.92;;;1.02;;
21272;SDS011;36726;52.328;10.552;2023-02-27T13:26:25;1.88;;;0.85;;
21272;SDS011;36726;52.328;10.552;2023-02-27T13:28:57;2.45;;;0.90;;
21272;SDS011;36726;52.328;10.552;2023-02-27T13:31:45;1.38;;;0.80;;
21272;SDS011;36726;52.328;10.552;2023-02-27T13:36:57;2.58;;;0.50;;
21272;SDS011;36726;52.328;10.552;2023-02-27T13:44:54;1.13;;;0.80;;
21272;SDS011;36726;52.328;10.552;2023-02-27T13:49:56;2.10;;;0.90;;
21272;SDS011;36726;52.328;10.552;2023-02-27T13:52:32;1.63;;;0.73;;
21272;SDS011;36726;52.328;10.552;2023-02-27T13:55:01;1.65;;;0.70;;
21272;SDS011;36726;52.328;10.552;2023-02-27T13:57:37;0.77;;;0.70;;
21272;SDS011;36726;52.328;10.552;2023-02-27T14:02:51;0.52;;;0.45;;
21272;SDS011;36726;52.328;10.552;2023-02-27T14:07:59;1.30;;;0.63;;
21272;SDS011;36726;52.328;10.552;2023-02-27T14:10:31;2.05;;;0.80;;
21272;SDS011;36726;52.328;10.552;2023-02-27T14:12:59;2.83;;;0.93;;
21272;SDS011;36726;52.328;10.552;2023-02-27T14:18:01;0.93;;;0.77;;
21272;SDS011;36726;52.328;10.552;2023-02-27T14:23:23;2.25;;;0.80;;
21272;SDS011;36726;52.328;10.552;2023-02-27T14:25:52;0.63;;;0.50;;
21272;SDS011;36726;52.328;10.552;2023-02-27T14:33:56;1.38;;;0.90;;
21272;SDS011;36726;52.328;10.552;2023-02-27T14:36:34;0.68;;;0.60;;
21272;SDS011;36726;52.328;10.552;2023-02-27T14:39:15;1.95;;;0.80;;
21272;SDS011;36726;52.328;10.552;2023-02-27T14:42:30;0.90;;;0.52;;
21272;SDS011;36726;52.328;10.552;2023-02-27T14:44:39;1.27;;;0.80;;
21272;SDS011;36726;52.328;10.552;2023-02-27T14:47:12;0.88;;;0.40;;
21272;SDS011;36726;52.328;10.552;2023-02-27T14:49:44;3.25;;;0.60;;
21272;SDS011;36726;52.328;10.552;2023-02-27T14:52:16;1.30;;;0.40;;
21272;SDS011;36726;52.328;10.552;2023-02-27T14:54:43;1.65;;;0.50;;
21272;SDS011;36726;52.328;10.552;2023-02-27T14:57:15;1.00;;;0.50;;
21272;SDS011;36726;52.328;10.552;2023-02-27T14:59:52;2.15;;;0.88;;
21272;SDS011;36726;52.328;10.552;2023-02-27T15:07:28;1.23;;;0.40;;
21272;SDS011;36726;52.328;10.552;2023-02-27T15:10:03;1.30;;;0.70;;
21272;SDS011;36726;52.328;10.552;2023-02-27T15:12:37;1.48;;;0.63;;
21272;SDS011;36726;52.328;10.552;2023-02-27T15:15:05;2.05;;;0.70;;
21272;SDS011;36726;52.328;10.552;2023-02-27T15:17:38;1.25;;;0.70;;
21272;SDS011;36726;52.328;10.552;2023-02-27T15:22:59;2.22;;;0.70;;
21272;SDS011;36726;52.328;10.552;2023-02-27T15:25:31;1.77;;;0.50;;
21272;SDS011;36726;52.328;10.552;2023-02-27T15:28:07;1.58;;;0.70;;
21272;SDS011;36726;52.328;10.552;2023-02-27T15:30:49;0.82;;;0.50;;
21272;SDS011;36726;52.328;10.552;2023-02-27T15:33:17;1.58;;;0.57;;
21272;SDS011;36726;52.328;10.552;2023-02-27T15:35:50;2.20;;;0.68;;
21272;SDS011;36726;52.328;10.552;2023-02-27T15:38:24;0.98;;;0.50;;
21272;SDS011;36726;52.328;10.552;2023-02-27T15:40:53;1.13;;;0.70;;
21272;SDS011;36726;52.328;10.552;2023-02-27T15:43:21;2.88;;;0.70;;
21272;SDS011;36726;52.328;10.552;2023-02-27T15:45:49;4.90;;;0.70;;
21272;SDS011;36726;52.328;10.552;2023-02-27T15:48:18;2.60;;;0.70;;
21272;SDS011;36726;52.328;10.552;2023-02-27T15:50:52;0.85;;;0.70;;
21272;SDS011;36726;52.328;10.552;2023-02-27T15:53:22;1.75;;;0.80;;
21272;SDS011;36726;52.328;10.552;2023-02-27T15:55:54;2.53;;;0.80;;
21272;SDS011;36726;52.328;10.552;2023-02-27T15:58:27;0.60;;;0.52;;
21272;SDS011;36726;52.328;10.552;2023-02-27T16:01:06;0.60;;;0.57;;
21272;SDS011;36726;52.328;10.552;2023-02-27T16:03:41;0.98;;;0.70;;
21272;SDS011;36726;52.328;10.552;2023-02-27T16:06:15;2.15;;;0.80;;
21272;SDS011;36726;52.328;10.552;2023-02-27T16:08:45;1.70;;;0.90;;
21272;SDS011;36726;52.328;10.552;2023-02-27T16:11:20;1.63;;;0.63;;
21272;SDS011;36726;52.328;10.552;2023-02-27T16:13:47;1.70;;;0.90;;
21272;SDS011;36726;52.328;10.552;2023-02-27T16:18:58;1.63;;;1.00;;
21272;SDS011;36726;52.328;10.552;2023-02-27T16:21:28;1.65;;;0.95;;
21272;SDS011;36726;52.328;10.552;2023-02-27T16:24:16;1.75;;;0.70;;
21272;SDS011;36726;52.328;10.552;2023-02-27T16:26:50;1.00;;;0.60;;
21272;SDS011;36726;52.328;10.552;2023-02-27T16:29:19;1.13;;;0.60;;
21272;SDS011;36726;52.328;10.552;2023-02-27T16:31:48;1.25;;;0.63;;
21272;SDS011;36726;52.328;10.552;2023-02-27T16:34:29;1.35;;;0.70;;
21272;SDS011;36726;52.328;10.552;2023-02-27T16:39:48;1.38;;;0.73;;
21272;SDS011;36726;52.328;10.552;2023-02-27T16:42:17;0.70;;;0.60;;
21272;SDS011;36726;52.328;10.552;2023-02-27T16:44:43;2.90;;;0.60;;
21272;SDS011;36726;52.328;10.552;2023-02-27T16:47:10;2.58;;;1.10;;
21272;SDS011;36726;52.328;10.552;2023-02-27T16:49:36;1.10;;;0.95;;
21272;SDS011;36726;52.328;10.552;2023-02-27T16:52:04;2.75;;;1.23;;
21272;SDS011;36726;52.328;10.552;2023-02-27T16:54:32;1.35;;;0.88;;
21272;SDS011;36726;52.328;10.552;2023-02-27T16:57:00;1.20;;;1.00;;
21272;SDS011;36726;52.328;10.552;2023-02-27T17:02:04;1.63;;;0.90;;
21272;SDS011;36726;52.328;10.552;2023-02-27T17:04:32;3.60;;;0.95;;
21272;SDS011;36726;52.328;10.552;2023-02-27T17:06:59;2.45;;;0.73;;
21272;SDS011;36726;52.328;10.552;2023-02-27T17:09:27;2.72;;;1.10;;
21272;SDS011;36726;52.328;10.552;2023-02-27T17:11:54;2.90;;;1.10;;
21272;SDS011;36726;52.328;10.552;2023-02-27T17:14:22;3.08;;;1.10;;
21272;SDS011;36726;52.328;10.552;2023-02-27T17:16:49;1.92;;;0.80;;
21272;SDS011;36726;52.328;10.552;2023-02-27T17:19:16;2.70;;;1.10;;
21272;SDS011;36726;52.328;10.552;2023-02-27T17:21:42;2.10;;;1.40;;
21272;SDS011;36726;52.328;10.552;2023-02-27T17:24:09;2.25;;;1.33;;
21272;SDS011;36726;52.328;10.552;2023-02-27T17:26:35;4.13;;;2.20;;
21272;SDS011;36726;52.328;10.552;2023-02-27T17:29:02;6.13;;;2.38;;
21272;SDS011;36726;52.328;10.552;2023-02-27T17:31:30;3.55;;;1.95;;